createdAt,value
2019-02-08T00:01:59.391Z,64.87
2019-02-08T00:04:30.294Z,57.70
2019-02-08T00:07:01.572Z,62.97
2019-02-08T00:09:32.966Z,63.00
2019-02-08T00:12:03.905Z,61.10
2019-02-08T00:14:34.803Z,54.53
2019-02-08T00:17:05.746Z,57.83
2019-02-08T00:19:36.652Z,56.00
2019-02-08T00:22:08.679Z,55.07
2019-02-08T00:24:39.615Z,52.97
2019-02-08T00:27:12.544Z,62.20
2019-02-08T00:29:43.459Z,62.93
2019-02-08T00:32:14.411Z,67.63
2019-02-08T00:34:45.287Z,64.00
2019-02-08T00:37:16.525Z,54.33
2019-02-08T00:39:47.425Z,59.07
2019-02-08T00:42:18.723Z,62.20
2019-02-08T00:44:50.511Z,53.03
2019-02-08T00:47:21.441Z,54.40
2019-02-08T00:49:52.623Z,56.97
2019-02-08T00:52:23.546Z,50.53
2019-02-08T00:54:54.456Z,51.33
2019-02-08T00:57:25.448Z,50.43
2019-02-08T00:59:56.356Z,51.97
2019-02-08T01:02:27.361Z,48.77
2019-02-08T01:04:58.536Z,52.30
2019-02-08T01:07:29.474Z,43.37
2019-02-08T01:10:00.454Z,44.63
2019-02-08T01:12:31.406Z,50.33
2019-02-08T01:15:02.321Z,44.03
2019-02-08T01:17:33.320Z,48.13
2019-02-08T01:20:16.275Z,47.60
2019-02-08T01:22:47.313Z,43.63
2019-02-08T01:25:20.116Z,38.87
2019-02-08T01:27:51.667Z,41.80
2019-02-08T01:30:24.768Z,37.27
2019-02-08T01:32:55.809Z,39.40
2019-02-08T01:35:28.155Z,44.77
2019-02-08T01:38:00.300Z,42.63
2019-02-08T01:40:36.707Z,41.10
2019-02-08T01:43:09.188Z,41.77
2019-02-08T01:45:40.703Z,37.10
2019-02-08T01:48:12.004Z,38.43
2019-02-08T01:50:42.906Z,41.43
2019-02-08T01:53:13.839Z,35.93
2019-02-08T01:55:44.757Z,41.20
2019-02-08T01:58:15.707Z,37.73
2019-02-08T02:00:46.605Z,31.67
2019-02-08T02:03:17.637Z,35.00
2019-02-08T02:05:48.535Z,35.43
2019-02-08T02:08:19.541Z,39.03
2019-02-08T02:10:50.456Z,34.67
2019-02-08T02:13:21.469Z,36.83
2019-02-08T02:15:52.378Z,32.60
2019-02-08T02:18:23.302Z,36.67
2019-02-08T02:20:54.203Z,35.87
2019-02-08T02:23:25.611Z,31.57
2019-02-08T02:25:56.464Z,34.93
2019-02-08T02:28:27.580Z,34.77
2019-02-08T02:30:58.478Z,33.50
2019-02-08T02:33:29.419Z,36.60
2019-02-08T02:36:00.318Z,35.43
2019-02-08T02:38:31.255Z,34.37
2019-02-08T02:41:02.149Z,31.23
2019-02-08T02:43:33.168Z,31.00
2019-02-08T02:46:04.859Z,34.57
2019-02-08T02:48:35.770Z,33.37
2019-02-08T02:51:06.692Z,29.17
2019-02-08T02:53:37.613Z,32.63
2019-02-08T02:56:08.521Z,29.17
2019-02-08T02:58:39.594Z,30.40
2019-02-08T03:01:10.562Z,32.23
2019-02-08T03:03:41.497Z,27.73
2019-02-08T03:06:12.410Z,29.47
2019-02-08T03:08:43.350Z,32.40
2019-02-08T03:11:14.264Z,26.47
2019-02-08T03:13:45.265Z,30.03
2019-02-08T03:16:16.158Z,24.73
2019-02-08T03:18:47.091Z,29.70
2019-02-08T03:21:17.978Z,23.63
2019-02-08T03:23:48.911Z,27.83
2019-02-08T03:26:19.815Z,21.50
2019-02-08T03:28:50.955Z,28.90
2019-02-08T03:31:21.862Z,24.70
2019-02-08T03:33:52.785Z,27.23
2019-02-08T03:36:23.691Z,26.00
2019-02-08T03:38:54.632Z,26.67
2019-02-08T03:41:25.535Z,25.23
2019-02-08T03:43:56.579Z,26.73
2019-02-08T03:46:29.359Z,25.90
2019-02-08T03:49:00.280Z,24.07
2019-02-08T03:51:31.198Z,21.30
2019-02-08T03:54:02.217Z,24.63
2019-02-08T03:56:33.123Z,22.23
2019-02-08T03:59:04.071Z,24.37
2019-02-08T04:01:35.074Z,26.17
2019-02-08T04:04:14.744Z,25.03
2019-02-08T04:06:45.653Z,25.13
2019-02-08T04:09:16.596Z,24.23
2019-02-08T04:11:47.493Z,64.97
2019-02-08T04:14:18.533Z,137.40
2019-02-08T04:16:49.452Z,115.73
2019-02-08T04:19:20.383Z,47.10
2019-02-08T04:21:51.360Z,35.03
2019-02-08T04:24:29.836Z,27.03
2019-02-08T04:26:54.960Z,24.90
2019-02-08T04:29:26.024Z,23.50
2019-02-08T04:31:56.925Z,26.10
2019-02-08T04:34:27.857Z,27.70
2019-02-08T04:36:58.770Z,22.53
2019-02-08T04:39:29.708Z,26.53
2019-02-08T04:42:00.616Z,24.37
2019-02-08T04:44:32.112Z,26.43
2019-02-08T04:47:03.008Z,24.87
2019-02-08T04:49:33.930Z,26.80
2019-02-08T04:52:04.838Z,25.07
2019-02-08T04:54:38.373Z,22.00
2019-02-08T04:57:08.350Z,23.90
2019-02-08T04:59:39.296Z,24.43
2019-02-08T05:02:10.193Z,25.10
2019-02-08T05:04:41.129Z,24.27
2019-02-08T05:07:12.023Z,27.93
2019-02-08T05:09:42.963Z,26.23
2019-02-08T05:12:13.864Z,23.73
2019-02-08T05:14:45.186Z,26.83
2019-02-08T05:17:16.087Z,25.77
2019-02-08T05:19:47.031Z,20.07
2019-02-08T05:22:17.930Z,23.37
2019-02-08T05:24:48.877Z,26.00
2019-02-08T05:27:19.774Z,29.23
2019-02-08T05:29:50.734Z,29.00
2019-02-08T05:32:21.706Z,34.23
2019-02-08T05:34:52.634Z,36.60
2019-02-08T05:37:27.242Z,35.20
2019-02-08T05:39:58.179Z,33.73
2019-02-08T05:42:29.075Z,37.13
2019-02-08T05:45:00.039Z,42.57
2019-02-08T05:47:31.930Z,44.40
2019-02-08T05:50:02.864Z,37.40
2019-02-08T05:52:33.762Z,28.43
2019-02-08T05:55:07.704Z,32.17
2019-02-08T05:57:38.587Z,43.70
2019-02-08T06:00:22.370Z,34.97
2019-02-08T06:02:53.355Z,24.60
2019-02-08T06:05:25.571Z,33.93
2019-02-08T06:07:56.547Z,32.37
2019-02-08T06:10:27.491Z,32.60
2019-02-08T06:12:58.383Z,29.23
2019-02-08T06:15:29.437Z,32.80
2019-02-08T06:18:00.457Z,32.03
2019-02-08T06:20:31.394Z,28.33
2019-02-08T06:23:02.368Z,26.47
2019-02-08T06:25:33.302Z,28.40
2019-02-08T06:28:05.112Z,40.43
2019-02-08T06:30:36.492Z,31.50
2019-02-08T06:33:07.483Z,35.57
2019-02-08T06:35:38.523Z,46.90
2019-02-08T06:38:09.521Z,25.87
2019-02-08T06:40:42.876Z,34.57
2019-02-08T06:43:13.782Z,28.57
2019-02-08T06:45:44.904Z,28.20
2019-02-08T06:48:16.609Z,31.90
2019-02-08T06:50:47.525Z,28.40
2019-02-08T06:53:18.431Z,28.20
2019-02-08T06:55:53.836Z,29.80
2019-02-08T06:58:29.592Z,28.20
2019-02-08T07:01:02.353Z,25.77
2019-02-08T07:03:37.639Z,30.13
2019-02-08T07:06:13.291Z,28.37
2019-02-08T07:08:45.869Z,29.57
2019-02-08T07:11:24.275Z,29.30
2019-02-08T07:14:05.798Z,29.87
2019-02-08T07:16:38.626Z,24.17
2019-02-08T07:19:11.222Z,33.53
2019-02-08T07:21:43.781Z,28.93
2019-02-08T07:24:34.336Z,28.67
2019-02-08T07:27:07.014Z,24.23
2019-02-08T07:29:40.174Z,24.20
2019-02-08T07:32:15.842Z,25.03
2019-02-08T07:35:06.501Z,24.33
2019-02-08T07:37:41.914Z,26.23
2019-02-08T07:40:29.301Z,21.83
2019-02-08T07:43:05.951Z,23.37
2019-02-08T07:45:56.359Z,32.00
2019-02-08T07:48:32.113Z,23.77
2019-02-08T07:51:04.662Z,21.93
2019-02-08T07:53:40.080Z,22.97
2019-02-08T07:56:16.479Z,22.63
2019-02-08T07:59:07.395Z,20.93
2019-02-08T08:01:40.626Z,25.13
2019-02-08T08:04:13.230Z,23.60
2019-02-08T08:06:45.887Z,24.10
2019-02-08T08:09:21.416Z,22.07
2019-02-08T08:11:56.777Z,21.53
2019-02-08T08:14:29.762Z,28.07
2019-02-08T08:17:18.549Z,20.73
2019-02-08T08:20:04.255Z,25.60
2019-02-08T08:22:39.699Z,21.60
2019-02-08T08:25:12.578Z,27.87
2019-02-08T08:27:45.127Z,20.93
2019-02-08T08:30:23.482Z,20.37
2019-02-08T08:32:57.368Z,19.13
2019-02-08T08:35:43.164Z,23.90
2019-02-08T08:38:44.128Z,23.77
2019-02-08T08:41:37.541Z,21.43
2019-02-08T08:44:30.905Z,22.57
2019-02-08T08:47:24.361Z,19.53
2019-02-08T08:50:14.255Z,23.87
2019-02-08T08:52:59.820Z,19.17
2019-02-08T08:55:42.082Z,21.80
2019-02-08T08:58:14.934Z,23.90
2019-02-08T09:00:51.387Z,20.10
2019-02-08T09:03:30.745Z,21.83
2019-02-08T09:06:13.561Z,20.47
2019-02-08T09:08:50.205Z,18.10
2019-02-08T09:11:25.208Z,20.33
2019-02-08T09:14:05.086Z,16.20
2019-02-08T09:16:51.156Z,20.13
2019-02-08T09:19:53.779Z,22.70
2019-02-08T09:22:39.323Z,20.43
2019-02-08T09:25:34.329Z,18.97
2019-02-08T09:28:10.820Z,20.37
2019-02-08T09:31:17.809Z,17.53
2019-02-08T09:34:17.180Z,21.10
2019-02-08T09:37:10.366Z,22.53
2019-02-08T09:39:46.917Z,18.43
2019-02-08T09:42:55.459Z,19.63
2019-02-08T09:45:44.399Z,19.87
2019-02-08T09:48:40.712Z,20.13
2019-02-08T09:51:17.219Z,25.30
2019-02-08T09:53:54.035Z,20.87
2019-02-08T09:56:55.279Z,20.00
2019-02-08T09:59:44.147Z,19.40
2019-02-08T10:02:29.811Z,25.63
2019-02-08T10:05:25.943Z,20.83
2019-02-08T10:08:32.972Z,24.03
2019-02-08T10:11:32.134Z,24.40
2019-02-08T10:14:29.986Z,20.23
2019-02-08T10:17:12.681Z,18.73
2019-02-08T10:19:58.152Z,22.00
2019-02-08T10:22:38.003Z,18.40
2019-02-08T10:25:28.218Z,29.43
2019-02-08T10:28:17.239Z,22.43
2019-02-08T10:31:12.169Z,23.17
2019-02-08T10:34:18.999Z,25.27
2019-02-08T10:37:21.439Z,20.17
2019-02-08T10:40:14.578Z,29.20
2019-02-08T10:43:21.642Z,20.03
2019-02-08T10:46:01.611Z,20.57
2019-02-08T10:49:08.545Z,17.13
2019-02-08T10:52:01.945Z,21.60
2019-02-08T10:54:53.900Z,34.87
2019-02-08T10:57:59.568Z,38.80
2019-02-08T11:01:00.665Z,21.73
2019-02-08T11:04:01.661Z,19.53
2019-02-08T11:06:51.896Z,19.67
2019-02-08T11:09:52.815Z,19.57
2019-02-08T11:12:49.061Z,85.00
2019-02-08T11:15:39.354Z,50.53
2019-02-08T11:18:47.262Z,18.73
2019-02-08T11:21:18.193Z,22.27
2019-02-08T11:23:49.099Z,23.03
2019-02-08T11:26:23.060Z,24.90
2019-02-08T11:28:52.646Z,33.03
2019-02-08T11:31:23.584Z,23.40
2019-02-08T11:33:54.483Z,26.00
2019-02-08T11:36:25.514Z,50.50
2019-02-08T11:38:56.426Z,27.77
2019-02-08T11:41:27.569Z,21.97
2019-02-08T11:43:58.470Z,19.13
2019-02-08T11:46:29.613Z,23.97
2019-02-08T11:49:00.509Z,25.03
2019-02-08T11:51:31.449Z,21.67
2019-02-08T11:54:02.349Z,24.73
2019-02-08T11:56:33.312Z,24.07
2019-02-08T11:59:04.708Z,22.27
2019-02-08T12:01:37.284Z,28.17
2019-02-08T12:04:08.793Z,28.57
2019-02-08T12:06:39.728Z,23.17
2019-02-08T12:09:12.941Z,24.93
2019-02-08T12:11:44.342Z,22.93
2019-02-08T12:14:15.491Z,22.47
2019-02-08T12:16:46.420Z,20.90
2019-02-08T12:19:17.316Z,24.03
2019-02-08T12:21:48.246Z,22.87
2019-02-08T12:24:19.152Z,25.30
2019-02-08T12:26:50.180Z,31.43
2019-02-08T12:29:21.085Z,22.07
2019-02-08T12:31:52.062Z,32.03
2019-02-08T12:34:22.969Z,31.90
2019-02-08T12:36:53.909Z,28.90
2019-02-08T12:39:24.810Z,32.13
2019-02-08T12:41:55.785Z,27.60
2019-02-08T12:44:26.693Z,24.00
2019-02-08T12:46:57.630Z,25.53
2019-02-08T12:49:28.522Z,20.33
2019-02-08T12:51:59.461Z,18.87
2019-02-08T12:54:30.380Z,17.97
2019-02-08T12:57:01.353Z,18.93
2019-02-08T12:59:32.309Z,18.33
2019-02-08T13:02:03.220Z,19.37
2019-02-08T13:04:34.122Z,18.67
2019-02-08T13:07:05.259Z,19.60
2019-02-08T13:09:36.166Z,19.30
2019-02-08T13:12:07.114Z,18.20
2019-02-08T13:14:38.022Z,22.27
2019-02-08T13:17:08.950Z,24.07
2019-02-08T13:19:39.851Z,20.93
2019-02-08T13:22:10.785Z,22.87
2019-02-08T13:24:41.691Z,23.40
2019-02-08T13:27:12.643Z,20.20
2019-02-08T13:29:43.554Z,23.40
2019-02-08T13:32:14.493Z,34.67
2019-02-08T13:34:45.395Z,21.53
2019-02-08T13:37:16.328Z,30.07
2019-02-08T13:39:47.239Z,22.20
2019-02-08T13:42:18.228Z,25.37
2019-02-08T13:44:49.146Z,19.07
2019-02-08T13:47:20.190Z,21.65
2019-02-08T13:49:51.100Z,26.97
2019-02-08T13:52:22.034Z,29.77
2019-02-08T13:54:53.052Z,25.70
2019-02-08T13:57:23.998Z,27.82
2019-02-08T13:59:54.908Z,21.47
2019-02-08T14:02:25.853Z,21.10
2019-02-08T14:04:56.764Z,21.85
2019-02-08T14:07:27.699Z,23.43
2019-02-08T14:09:58.603Z,17.83
2019-02-08T14:12:29.575Z,16.10
2019-02-08T14:15:00.485Z,17.07
2019-02-08T14:17:31.415Z,17.83
2019-02-08T14:20:02.381Z,18.50
2019-02-08T14:22:33.313Z,157.37
2019-02-08T14:25:05.625Z,79.33
2019-02-08T14:27:36.575Z,37.47
2019-02-08T14:30:18.902Z,75.73
2019-02-08T14:32:49.817Z,72.13
2019-02-08T14:35:20.756Z,34.97
2019-02-08T14:37:51.810Z,26.90
2019-02-08T14:40:24.607Z,30.73
2019-02-08T14:42:55.732Z,32.73
2019-02-08T14:45:26.638Z,28.00
2019-02-08T14:47:57.571Z,30.23
2019-02-08T14:50:29.781Z,30.07
2019-02-08T14:53:00.811Z,39.97
2019-02-08T14:55:31.711Z,26.83
2019-02-08T14:58:05.017Z,34.60
2019-02-08T15:00:35.977Z,31.73
2019-02-08T15:03:06.913Z,29.50
2019-02-08T15:05:37.807Z,31.17
2019-02-08T15:08:08.741Z,31.80
2019-02-08T15:10:42.637Z,32.80
2019-02-08T15:13:13.795Z,29.90
2019-02-08T15:15:44.699Z,31.30
2019-02-08T15:18:15.610Z,31.90
2019-02-08T15:20:46.505Z,24.27
2019-02-08T15:23:17.595Z,27.43
2019-02-08T15:25:48.492Z,24.43
2019-02-08T15:28:19.469Z,28.43
2019-02-08T15:30:50.375Z,28.77
2019-02-08T15:33:21.333Z,39.87
2019-02-08T15:35:52.201Z,45.93
2019-02-08T15:38:23.238Z,70.23
2019-02-08T15:40:55.648Z,37.57
2019-02-08T15:43:26.705Z,44.13
2019-02-08T15:45:59.546Z,33.17
2019-02-08T15:48:30.572Z,38.40
2019-02-08T15:51:01.675Z,40.67
2019-02-08T15:53:32.897Z,25.30
2019-02-08T15:56:06.993Z,31.73
2019-02-08T15:58:37.996Z,28.17
2019-02-08T16:01:10.172Z,34.83
2019-02-08T16:03:41.212Z,34.03
2019-02-08T16:06:12.423Z,38.80
2019-02-08T16:08:43.378Z,24.00
2019-02-08T16:11:14.312Z,34.97
2019-02-08T16:13:45.334Z,36.00
2019-02-08T16:16:16.379Z,26.23
2019-02-08T16:18:47.382Z,25.63
2019-02-08T16:21:18.507Z,25.50
2019-02-08T16:23:49.477Z,37.07
2019-02-08T16:26:24.205Z,31.47
2019-02-08T16:28:55.183Z,25.23
2019-02-08T16:31:26.120Z,23.80
2019-02-08T16:33:57.195Z,23.70
2019-02-08T16:36:28.218Z,29.13
2019-02-08T16:38:59.186Z,44.43
2019-02-08T16:41:30.192Z,45.53
2019-02-08T16:44:01.259Z,31.50
2019-02-08T16:46:33.471Z,31.30
2019-02-08T16:49:04.744Z,35.17
2019-02-08T16:51:35.640Z,44.97
2019-02-08T16:54:06.760Z,27.03
2019-02-08T16:56:38.546Z,28.67
2019-02-08T16:59:09.646Z,25.90
2019-02-08T17:01:40.565Z,28.43
2019-02-08T17:04:11.575Z,33.37
2019-02-08T17:06:42.512Z,38.63
2019-02-08T17:09:14.044Z,28.10
2019-02-08T17:11:44.957Z,30.33
2019-02-08T17:14:15.928Z,33.20
2019-02-08T17:16:46.832Z,33.00
2019-02-08T17:19:17.781Z,35.70
2019-02-08T17:21:48.939Z,29.80
2019-02-08T17:24:19.878Z,38.30
2019-02-08T17:26:50.775Z,35.50
2019-02-08T17:29:21.848Z,32.00
2019-02-08T17:31:52.731Z,33.40
2019-02-08T17:34:23.663Z,29.83
2019-02-08T17:36:54.565Z,31.00
2019-02-08T17:39:25.497Z,26.10
2019-02-08T17:41:56.412Z,25.67
2019-02-08T17:44:27.368Z,28.93
2019-02-08T17:46:58.276Z,40.50
2019-02-08T17:49:29.307Z,54.20
2019-02-08T17:52:00.205Z,73.97
2019-02-08T17:54:31.148Z,141.17
2019-02-08T17:57:02.141Z,258.07
2019-02-08T17:59:33.109Z,117.57
2019-02-08T18:02:04.020Z,493.73
2019-02-08T18:04:34.963Z,73.87
2019-02-08T18:07:05.887Z,1029.60
2019-02-08T18:09:36.850Z,1356.17
2019-02-08T18:12:07.768Z,561.67
2019-02-08T18:14:38.867Z,51.47
2019-02-08T18:17:09.765Z,33.77
2019-02-08T18:19:40.698Z,27.43
2019-02-08T18:22:11.600Z,28.10
2019-02-08T18:24:42.563Z,29.90
2019-02-08T18:27:13.467Z,28.67
2019-02-08T18:29:44.545Z,28.77
2019-02-08T18:32:15.452Z,28.33
2019-02-08T18:34:46.372Z,32.37
2019-02-08T18:37:17.278Z,32.03
2019-02-08T18:39:48.211Z,33.97
2019-02-08T18:42:19.110Z,33.90
2019-02-08T18:44:50.079Z,52.50
2019-02-08T18:47:20.975Z,60.27
2019-02-08T18:49:51.928Z,38.90
2019-02-08T18:52:22.821Z,34.07
2019-02-08T18:54:53.763Z,28.30
2019-02-08T18:57:25.451Z,31.43
2019-02-08T18:59:56.416Z,32.93
2019-02-08T19:02:27.325Z,42.87
2019-02-08T19:04:58.277Z,34.27
2019-02-08T19:07:29.187Z,32.70
2019-02-08T19:10:00.216Z,28.97
2019-02-08T19:12:31.082Z,33.47
2019-02-08T19:15:02.037Z,38.87
2019-02-08T19:17:33.022Z,27.97
2019-02-08T19:20:05.146Z,31.30
2019-02-08T19:22:36.068Z,37.10
2019-02-08T19:25:09.904Z,33.97
2019-02-08T19:27:40.806Z,31.67
2019-02-08T19:30:20.467Z,32.87
2019-02-08T19:32:51.379Z,30.67
2019-02-08T19:35:22.318Z,26.60
2019-02-08T19:37:53.218Z,32.13
2019-02-08T19:40:27.131Z,23.47
2019-02-08T19:42:58.043Z,32.13
2019-02-08T19:45:29.018Z,26.80
2019-02-08T19:48:00.038Z,29.37
2019-02-08T19:50:33.754Z,27.93
2019-02-08T19:53:05.782Z,31.37
2019-02-08T19:55:36.718Z,58.77
2019-02-08T19:58:08.523Z,42.07
2019-02-08T20:00:44.369Z,60.90
2019-02-08T20:03:15.279Z,50.80
2019-02-08T20:05:46.210Z,41.67
2019-02-08T20:08:17.099Z,27.17
2019-02-08T20:10:49.807Z,30.30
2019-02-08T20:13:20.720Z,52.87
2019-02-08T20:15:51.718Z,41.10
2019-02-08T20:18:22.619Z,61.70
2019-02-08T20:20:53.570Z,44.37
2019-02-08T20:23:24.497Z,49.83
2019-02-08T20:25:55.413Z,36.87
2019-02-08T20:28:26.315Z,49.60
2019-02-08T20:30:57.272Z,62.20
2019-02-08T20:33:28.182Z,35.70
2019-02-08T20:35:59.115Z,57.93
2019-02-08T20:38:30.021Z,44.83
2019-02-08T20:41:00.961Z,49.80
2019-02-08T20:43:31.868Z,47.70
2019-02-08T20:46:02.821Z,34.07
2019-02-08T20:48:33.737Z,103.70
2019-02-08T20:51:04.680Z,39.13
2019-02-08T20:53:35.646Z,62.17
2019-02-08T20:56:06.981Z,33.57
2019-02-08T20:58:38.799Z,29.47
2019-02-08T21:01:10.057Z,28.30
2019-02-08T21:03:40.966Z,30.23
2019-02-08T21:06:12.006Z,35.90
2019-02-08T21:08:42.912Z,32.83
2019-02-08T21:11:13.838Z,30.10
2019-02-08T21:13:44.743Z,33.87
2019-02-08T21:16:21.254Z,31.60
2019-02-08T21:18:52.168Z,37.70
2019-02-08T21:21:23.097Z,29.57
2019-02-08T21:23:54.009Z,30.43
2019-02-08T21:26:24.943Z,29.50
2019-02-08T21:28:58.078Z,36.93
2019-02-08T21:31:28.506Z,32.03
2019-02-08T21:33:59.523Z,26.27
2019-02-08T21:36:38.589Z,34.97
2019-02-08T21:39:03.336Z,31.90
2019-02-08T21:41:34.266Z,26.73
2019-02-08T21:44:05.367Z,39.03
2019-02-08T21:46:36.329Z,32.57
2019-02-08T21:49:07.220Z,38.07
2019-02-08T21:51:38.143Z,35.87
2019-02-08T21:54:09.053Z,45.33
2019-02-08T21:56:39.981Z,34.83
2019-02-08T21:59:11.993Z,36.23
2019-02-08T22:01:42.993Z,26.70
2019-02-08T22:04:14.213Z,28.57
2019-02-08T22:06:45.162Z,26.33
2019-02-08T22:09:16.161Z,24.77
2019-02-08T22:11:47.096Z,32.10
2019-02-08T22:14:18.002Z,29.80
2019-02-08T22:16:49.036Z,24.53
2019-02-08T22:19:19.946Z,29.00
2019-02-08T22:21:50.894Z,24.23
2019-02-08T22:24:21.805Z,22.30
2019-02-08T22:26:52.741Z,28.63
2019-02-08T22:29:23.644Z,28.50
2019-02-08T22:31:54.605Z,26.13
2019-02-08T22:34:25.508Z,23.07
2019-02-08T22:36:56.455Z,22.50
2019-02-08T22:39:27.364Z,21.60
2019-02-08T22:41:58.297Z,30.93
2019-02-08T22:44:29.203Z,28.60
2019-02-08T22:47:00.161Z,30.20
2019-02-08T22:49:31.088Z,31.13
2019-02-08T22:52:02.022Z,33.27
2019-02-08T22:54:32.947Z,28.43
2019-02-08T22:57:03.874Z,32.47
2019-02-08T22:59:34.789Z,33.40
2019-02-08T23:02:07.533Z,25.57
2019-02-08T23:04:38.440Z,21.53
2019-02-08T23:07:09.582Z,29.40
2019-02-08T23:09:40.488Z,121.93
2019-02-08T23:12:11.427Z,36.67
2019-02-08T23:14:42.327Z,34.70
2019-02-08T23:17:13.283Z,30.83
2019-02-08T23:19:44.182Z,36.20
2019-02-08T23:22:15.121Z,52.60
2019-02-08T23:24:46.197Z,31.53
2019-02-08T23:27:17.126Z,42.37
2019-02-08T23:29:48.035Z,38.83
2019-02-08T23:32:18.987Z,37.57
2019-02-08T23:34:49.891Z,33.57
2019-02-08T23:37:25.885Z,27.77
2019-02-08T23:42:54.304Z,56.57
2019-02-08T23:45:25.209Z,40.60
2019-02-08T23:47:59.676Z,33.77
2019-02-08T23:50:30.579Z,27.50
2019-02-08T23:53:01.554Z,40.50
2019-02-08T23:55:32.454Z,33.33
2019-02-08T23:58:03.381Z,26.07
